createdAt,value
2024-02-16T00:02:09.966Z,83.25
2024-02-16T00:04:36.974Z,82.93
2024-02-16T00:07:03.815Z,84.23
2024-02-16T00:09:30.546Z,84.29
2024-02-16T00:11:57.269Z,82.87
2024-02-16T00:14:23.895Z,84.46
2024-02-16T00:16:50.763Z,83.85
2024-02-16T00:19:17.736Z,83.27
2024-02-16T00:21:44.510Z,85.00
2024-02-16T00:24:11.470Z,83.58
2024-02-16T00:26:40.936Z,83.34
2024-02-16T00:29:07.916Z,83.66
2024-02-16T00:31:34.557Z,83.40
2024-02-16T00:34:01.384Z,83.03
2024-02-16T00:36:29.295Z,81.69
2024-02-16T00:38:56.203Z,81.74
2024-02-16T00:41:24.325Z,82.51
2024-02-16T00:43:53.388Z,82.22
2024-02-16T00:46:20.177Z,81.97
2024-02-16T00:48:48.052Z,81.66
2024-02-16T00:51:15.143Z,80.79
2024-02-16T00:53:41.879Z,80.16
2024-02-16T00:56:08.414Z,78.60
2024-02-16T00:58:35.530Z,79.75
2024-02-16T01:01:02.233Z,81.30
2024-02-16T01:03:28.880Z,82.15
2024-02-16T01:05:55.639Z,82.90
2024-02-16T01:08:24.415Z,84.00
2024-02-16T01:10:51.072Z,83.62
2024-02-16T01:13:17.880Z,83.84
2024-02-16T01:15:45.131Z,83.04
2024-02-16T01:18:13.012Z,84.51
2024-02-16T01:20:39.707Z,84.92
2024-02-16T01:23:06.279Z,86.83
2024-02-16T01:25:33.236Z,88.91
2024-02-16T01:28:00.236Z,86.75
2024-02-16T01:30:26.930Z,87.97
2024-02-16T01:32:53.574Z,87.25
2024-02-16T01:35:21.260Z,86.62
2024-02-16T01:37:49.157Z,89.33
2024-02-16T01:40:18.198Z,90.52
2024-02-16T01:42:45.190Z,91.51
2024-02-16T01:45:16.651Z,91.84
2024-02-16T01:47:45.314Z,93.95
2024-02-16T01:50:12.501Z,94.79
2024-02-16T01:52:39.352Z,95.84
2024-02-16T01:55:10.084Z,95.09
2024-02-16T01:57:48.261Z,96.71
2024-02-16T02:00:18.681Z,97.82
2024-02-16T02:02:47.650Z,100.00
2024-02-16T02:05:16.159Z,100.00
2024-02-16T02:07:44.089Z,100.00
2024-02-16T02:10:13.990Z,100.00
2024-02-16T02:12:41.382Z,100.00
2024-02-16T02:15:08.655Z,100.00
2024-02-16T02:17:36.131Z,100.00
2024-02-16T02:20:05.188Z,100.00
2024-02-16T02:22:32.080Z,100.00
2024-02-16T02:24:58.608Z,100.00
2024-02-16T02:27:25.323Z,100.00
2024-02-16T02:29:52.353Z,100.00
2024-02-16T02:32:19.049Z,100.00
2024-02-16T02:34:45.711Z,100.00
2024-02-16T02:37:12.497Z,100.00
2024-02-16T02:39:39.224Z,100.00
2024-02-16T02:42:06.115Z,100.00
2024-02-16T02:44:33.966Z,100.00
2024-02-16T02:47:00.675Z,100.00
2024-02-16T02:49:27.286Z,100.00
2024-02-16T02:51:53.954Z,100.00
2024-02-16T02:54:20.669Z,100.00
2024-02-16T02:56:47.577Z,100.00
2024-02-16T02:59:14.224Z,100.00
2024-02-16T03:01:41.039Z,100.00
2024-02-16T03:04:08.366Z,100.00
2024-02-16T03:06:35.149Z,100.00
2024-02-16T03:09:01.902Z,100.00
2024-02-16T03:11:28.515Z,100.00
2024-02-16T03:13:55.167Z,100.00
2024-02-16T03:16:21.794Z,100.00
2024-02-16T03:18:48.715Z,100.00
2024-02-16T03:21:19.158Z,100.00
2024-02-16T03:23:46.125Z,100.00
2024-02-16T03:26:16.513Z,100.00
2024-02-16T03:28:47.804Z,100.00
2024-02-16T03:31:23.208Z,100.00
2024-02-16T03:33:51.359Z,100.00
2024-02-16T03:36:20.170Z,100.00
2024-02-16T03:38:48.303Z,100.00
2024-02-16T03:41:16.590Z,100.00
2024-02-16T03:43:44.009Z,100.00
2024-02-16T03:46:11.053Z,100.00
2024-02-16T03:48:38.068Z,100.00
2024-02-16T03:51:05.048Z,100.00
2024-02-16T03:53:31.702Z,100.00
2024-02-16T03:55:58.477Z,100.00
2024-02-16T03:58:25.815Z,100.00
2024-02-16T04:00:56.074Z,100.00
2024-02-16T04:03:22.943Z,100.00
2024-02-16T04:05:49.736Z,100.00
2024-02-16T04:08:16.459Z,100.00
2024-02-16T04:10:43.204Z,100.00
2024-02-16T04:13:09.974Z,100.00
2024-02-16T04:15:36.754Z,100.00
2024-02-16T04:18:03.842Z,100.00
2024-02-16T04:20:30.555Z,100.00
2024-02-16T04:22:57.361Z,100.00
2024-02-16T04:25:24.744Z,100.00
2024-02-16T04:27:51.959Z,100.00
2024-02-16T04:30:18.712Z,100.00
2024-02-16T04:32:45.321Z,100.00
2024-02-16T04:35:15.966Z,100.00
2024-02-16T04:37:42.705Z,100.00
2024-02-16T04:40:09.513Z,100.00
2024-02-16T04:42:36.254Z,100.00
2024-02-16T04:45:06.537Z,99.83
2024-02-16T04:47:33.573Z,99.32
2024-02-16T04:50:00.232Z,97.45
2024-02-16T04:52:30.321Z,97.56
2024-02-16T04:54:57.468Z,96.28
2024-02-16T04:57:24.110Z,94.81
2024-02-16T04:59:50.783Z,96.06
2024-02-16T05:02:17.460Z,96.68
2024-02-16T05:04:44.110Z,95.46
2024-02-16T05:07:10.852Z,95.66
2024-02-16T05:09:37.642Z,96.94
2024-02-16T05:12:04.984Z,97.03
2024-02-16T05:14:31.729Z,98.85
2024-02-16T05:17:00.035Z,96.39
2024-02-16T05:19:27.103Z,97.39
2024-02-16T05:21:53.809Z,97.44
2024-02-16T05:24:21.743Z,98.10
2024-02-16T05:26:48.957Z,98.72
2024-02-16T05:29:15.500Z,99.25
2024-02-16T05:31:42.178Z,98.06
2024-02-16T05:34:08.908Z,96.64
2024-02-16T05:36:37.662Z,97.36
2024-02-16T05:39:27.839Z,99.31
2024-02-16T05:41:55.042Z,99.50
2024-02-16T05:44:21.757Z,97.97
2024-02-16T05:46:48.828Z,97.18
2024-02-16T05:49:17.373Z,97.34
2024-02-16T05:52:01.317Z,96.24
2024-02-16T05:54:28.490Z,97.25
2024-02-16T05:56:55.258Z,95.97
2024-02-16T05:59:23.362Z,95.88
2024-02-16T06:01:50.224Z,94.72
2024-02-16T06:04:17.788Z,95.40
2024-02-16T06:06:44.609Z,96.13
2024-02-16T06:09:11.345Z,95.86
2024-02-16T06:11:39.206Z,96.03
2024-02-16T06:14:05.828Z,95.05
2024-02-16T06:16:32.526Z,94.38
2024-02-16T06:18:59.162Z,96.01
2024-02-16T06:21:25.887Z,95.79
2024-02-16T06:23:52.552Z,96.39
2024-02-16T06:26:19.109Z,95.04
2024-02-16T06:28:45.692Z,95.57
2024-02-16T06:31:13.644Z,94.51
2024-02-16T06:33:40.371Z,95.29
2024-02-16T06:36:08.353Z,93.95
2024-02-16T06:38:35.006Z,95.89
2024-02-16T06:41:01.681Z,96.40
2024-02-16T06:43:28.265Z,96.84
2024-02-16T06:45:56.674Z,95.03
2024-02-16T06:48:23.952Z,94.52
2024-02-16T06:50:50.705Z,93.59
2024-02-16T06:53:17.375Z,92.06
2024-02-16T06:55:43.965Z,92.53
2024-02-16T06:58:10.578Z,91.28
2024-02-16T07:00:37.183Z,92.79
2024-02-16T07:03:04.087Z,91.70
2024-02-16T07:05:34.030Z,89.99
2024-02-16T07:08:02.653Z,90.86
2024-02-16T07:10:29.268Z,91.61
2024-02-16T07:12:55.886Z,91.59
2024-02-16T07:15:22.427Z,91.58
2024-02-16T07:17:49.164Z,92.76
2024-02-16T07:20:16.881Z,93.36
2024-02-16T07:22:43.733Z,93.54
2024-02-16T07:25:11.214Z,94.01
2024-02-16T07:27:37.932Z,94.01
2024-02-16T07:30:05.499Z,91.81
2024-02-16T07:32:32.199Z,93.52
2024-02-16T07:34:58.768Z,92.69
2024-02-16T07:37:25.415Z,92.95
2024-02-16T07:39:53.158Z,92.21
2024-02-16T07:42:19.839Z,93.48
2024-02-16T07:44:46.373Z,92.48
2024-02-16T07:47:13.710Z,94.64
2024-02-16T07:49:43.138Z,92.53
2024-02-16T07:52:10.262Z,93.43
2024-02-16T07:54:37.340Z,92.54
2024-02-16T07:57:05.392Z,93.47
2024-02-16T07:59:32.080Z,93.75
2024-02-16T08:01:59.725Z,94.79
2024-02-16T08:04:26.333Z,92.26
2024-02-16T08:06:53.108Z,93.14
2024-02-16T08:09:19.925Z,92.84
2024-02-16T08:11:46.598Z,92.87
2024-02-16T08:14:13.160Z,93.20
2024-02-16T08:16:39.737Z,92.38
2024-02-16T08:19:06.968Z,91.47
2024-02-16T08:21:33.802Z,91.66
2024-02-16T08:24:00.553Z,92.93
2024-02-16T08:26:27.963Z,92.53
2024-02-16T08:28:54.662Z,92.23
2024-02-16T08:31:21.207Z,91.36
2024-02-16T08:33:48.535Z,91.04
2024-02-16T08:36:16.200Z,91.08
2024-02-16T08:38:42.895Z,91.62
2024-02-16T08:41:09.488Z,92.81
2024-02-16T08:43:36.198Z,93.42
2024-02-16T08:46:02.696Z,93.89
2024-02-16T08:48:29.456Z,93.31
2024-02-16T08:50:56.105Z,92.31
2024-02-16T08:53:22.706Z,89.63
2024-02-16T08:55:49.316Z,91.75
2024-02-16T08:58:15.853Z,91.52
2024-02-16T09:00:42.578Z,88.94
2024-02-16T09:03:09.914Z,89.82
2024-02-16T09:05:37.915Z,85.47
2024-02-16T09:08:06.004Z,89.15
2024-02-16T09:10:32.706Z,91.69
2024-02-16T09:12:59.341Z,91.56
2024-02-16T09:15:25.968Z,88.80
2024-02-16T09:17:52.752Z,89.21
2024-02-16T09:20:23.477Z,91.56
2024-02-16T09:22:50.347Z,89.25
2024-02-16T09:25:16.925Z,89.55
2024-02-16T09:27:46.089Z,89.80
2024-02-16T09:30:14.050Z,93.01
2024-02-16T09:32:41.927Z,92.84
2024-02-16T09:35:09.550Z,90.47
2024-02-16T09:37:38.231Z,90.74
2024-02-16T09:40:06.662Z,95.26
2024-02-16T09:42:38.893Z,94.77
2024-02-16T09:45:08.194Z,92.33
2024-02-16T09:47:36.122Z,93.71
2024-02-16T09:50:03.980Z,93.25
2024-02-16T09:52:31.180Z,93.09
2024-02-16T09:54:57.875Z,93.14
2024-02-16T09:57:24.448Z,94.68
2024-02-16T09:59:51.272Z,93.55
2024-02-16T10:02:18.410Z,94.36
2024-02-16T10:04:45.597Z,94.43
2024-02-16T10:07:13.678Z,92.47
2024-02-16T10:09:43.957Z,91.42
2024-02-16T10:12:11.252Z,95.57
2024-02-16T10:14:39.131Z,92.93
2024-02-16T10:17:08.432Z,97.13
2024-02-16T10:19:42.562Z,95.21
2024-02-16T10:22:14.299Z,97.65
2024-02-16T10:24:43.756Z,99.29
2024-02-16T10:27:18.857Z,100.00
2024-02-16T10:29:50.979Z,100.00
2024-02-16T10:32:18.224Z,99.07
2024-02-16T10:34:47.491Z,98.67
2024-02-16T10:37:15.954Z,100.00
2024-02-16T10:39:44.050Z,100.00
2024-02-16T10:42:12.912Z,100.00
2024-02-16T10:44:41.354Z,100.00
2024-02-16T10:47:08.006Z,100.00
2024-02-16T10:49:34.902Z,100.00
2024-02-16T10:52:04.064Z,100.00
2024-02-16T10:54:34.970Z,99.94
2024-02-16T10:57:01.963Z,96.44
2024-02-16T10:59:42.030Z,98.83
2024-02-16T11:02:08.664Z,98.30
2024-02-16T11:04:42.121Z,100.00
2024-02-16T11:07:27.576Z,100.00
2024-02-16T11:09:54.460Z,100.00
2024-02-16T11:12:22.920Z,100.00
2024-02-16T11:14:56.433Z,100.00
2024-02-16T11:17:24.792Z,100.00
2024-02-16T11:19:55.542Z,100.00
2024-02-16T11:22:22.399Z,100.00
2024-02-16T11:24:50.327Z,100.00
2024-02-16T11:27:21.165Z,100.00
2024-02-16T11:29:49.790Z,100.00
2024-02-16T11:32:16.805Z,100.00
2024-02-16T11:34:43.646Z,100.00
2024-02-16T11:37:13.620Z,100.00
2024-02-16T11:39:41.961Z,100.00
2024-02-16T11:42:14.461Z,100.00
2024-02-16T11:44:51.378Z,98.35
2024-02-16T11:47:29.686Z,98.73
2024-02-16T11:50:03.802Z,99.55
2024-02-16T11:52:30.700Z,98.72
2024-02-16T11:55:01.076Z,98.23
2024-02-16T11:57:28.892Z,100.00
2024-02-16T11:59:56.169Z,100.00
2024-02-16T12:02:25.975Z,100.00
2024-02-16T12:05:04.008Z,100.00
2024-02-16T12:07:32.598Z,100.00
2024-02-16T12:10:00.914Z,100.00
2024-02-16T12:12:28.952Z,100.00
2024-02-16T12:14:56.794Z,100.00
2024-02-16T12:17:23.790Z,100.00
2024-02-16T12:19:52.711Z,100.00
2024-02-16T12:22:20.653Z,100.00
2024-02-16T12:24:48.808Z,100.00
2024-02-16T12:27:18.768Z,100.00
2024-02-16T12:29:45.690Z,100.00
2024-02-16T12:32:12.512Z,100.00
2024-02-16T12:34:39.414Z,100.00
2024-02-16T12:37:08.512Z,100.00
2024-02-16T12:39:35.957Z,100.00
2024-02-16T12:42:02.981Z,100.00
2024-02-16T12:44:29.745Z,100.00
2024-02-16T12:46:56.487Z,100.00
2024-02-16T12:49:23.872Z,100.00
2024-02-16T12:51:51.661Z,100.00
2024-02-16T12:54:21.814Z,100.00
2024-02-16T12:56:49.418Z,100.00
2024-02-16T12:59:16.108Z,100.00
2024-02-16T13:01:44.170Z,100.00
2024-02-16T13:04:11.021Z,100.00
2024-02-16T13:06:38.920Z,100.00
2024-02-16T13:09:06.704Z,100.00
2024-02-16T13:11:35.121Z,100.00
2024-02-16T13:14:02.032Z,100.00
2024-02-16T13:16:28.741Z,100.00
2024-02-16T13:18:55.374Z,100.00
2024-02-16T13:21:22.184Z,100.00
2024-02-16T13:23:49.182Z,100.00
2024-02-16T13:26:16.155Z,100.00
2024-02-16T13:28:42.844Z,100.00
2024-02-16T13:31:11.338Z,100.00
2024-02-16T13:33:38.750Z,100.00
2024-02-16T13:36:06.609Z,100.00
2024-02-16T13:38:33.291Z,100.00
2024-02-16T13:41:00.082Z,100.00
2024-02-16T13:43:27.334Z,100.00
2024-02-16T13:45:57.219Z,100.00
2024-02-16T13:48:24.090Z,100.00
2024-02-16T13:50:52.271Z,100.00
2024-02-16T13:53:21.769Z,100.00
2024-02-16T13:55:49.879Z,100.00
2024-02-16T13:58:16.985Z,100.00
2024-02-16T14:00:43.996Z,100.00
2024-02-16T14:03:12.981Z,100.00
2024-02-16T14:05:40.389Z,100.00
2024-02-16T14:08:09.771Z,100.00
2024-02-16T14:10:37.283Z,100.00
2024-02-16T14:13:04.753Z,100.00
2024-02-16T14:15:33.170Z,100.00
2024-02-16T14:18:04.548Z,100.00
2024-02-16T14:20:36.059Z,100.00
2024-02-16T14:23:03.975Z,100.00
2024-02-16T14:25:30.715Z,100.00
2024-02-16T14:27:59.370Z,100.00
2024-02-16T14:30:26.386Z,100.00
2024-02-16T14:32:55.236Z,100.00
2024-02-16T14:35:23.560Z,100.00
2024-02-16T14:37:50.845Z,100.00
2024-02-16T14:40:17.804Z,100.00
2024-02-16T14:42:44.601Z,100.00
2024-02-16T14:45:20.459Z,100.00
2024-02-16T14:47:49.062Z,100.00
2024-02-16T14:50:15.866Z,100.00
2024-02-16T14:55:14.885Z,100.00
2024-02-16T14:57:42.308Z,100.00
2024-02-16T15:00:10.727Z,100.00
2024-02-16T15:02:38.559Z,100.00
2024-02-16T15:05:06.628Z,100.00
2024-02-16T15:07:33.402Z,100.00
2024-02-16T15:10:00.618Z,100.00
2024-02-16T15:12:28.522Z,100.00
2024-02-16T15:14:56.051Z,100.00
2024-02-16T15:17:23.111Z,100.00
2024-02-16T15:19:50.147Z,100.00
2024-02-16T15:22:17.111Z,100.00
2024-02-16T15:24:43.986Z,100.00
2024-02-16T15:27:11.693Z,100.00
2024-02-16T15:29:38.460Z,100.00
2024-02-16T15:32:05.201Z,100.00
2024-02-16T15:34:31.951Z,100.00
2024-02-16T15:36:59.831Z,100.00
2024-02-16T15:39:26.685Z,100.00
2024-02-16T15:41:56.332Z,100.00
2024-02-16T15:44:23.204Z,100.00
2024-02-16T15:46:49.857Z,100.00
2024-02-16T15:49:16.951Z,100.00
2024-02-16T15:51:43.745Z,100.00
2024-02-16T15:54:10.465Z,100.00
2024-02-16T15:56:37.953Z,100.00
2024-02-16T15:59:04.640Z,100.00
2024-02-16T16:01:33.741Z,100.00
2024-02-16T16:04:00.797Z,100.00
2024-02-16T16:06:27.789Z,100.00
2024-02-16T16:08:57.676Z,100.00
2024-02-16T16:11:24.528Z,100.00
2024-02-16T16:13:51.223Z,100.00
2024-02-16T16:16:18.118Z,100.00
2024-02-16T16:18:45.150Z,100.00
2024-02-16T16:21:11.985Z,100.00
2024-02-16T16:23:38.742Z,100.00
2024-02-16T16:26:06.113Z,100.00
2024-02-16T16:28:33.416Z,100.00
2024-02-16T16:31:00.097Z,100.00
2024-02-16T16:33:26.908Z,100.00
2024-02-16T16:35:54.361Z,100.00
2024-02-16T16:38:21.334Z,100.00
2024-02-16T16:40:48.236Z,100.00
2024-02-16T16:43:15.509Z,100.00
2024-02-16T16:45:43.556Z,100.00
2024-02-16T16:48:11.176Z,100.00
2024-02-16T16:50:38.605Z,100.00
2024-02-16T16:53:06.088Z,100.00
2024-02-16T16:55:33.667Z,100.00
2024-02-16T16:58:01.132Z,100.00
2024-02-16T17:00:28.626Z,100.00
2024-02-16T17:02:55.617Z,100.00
2024-02-16T17:05:22.295Z,100.00
2024-02-16T17:07:49.588Z,100.00
2024-02-16T17:10:17.247Z,100.00
2024-02-16T17:12:46.001Z,100.00
2024-02-16T17:15:19.827Z,100.00
2024-02-16T17:17:53.934Z,100.00
2024-02-16T17:20:26.095Z,100.00
2024-02-16T17:22:54.756Z,100.00
2024-02-16T17:25:23.342Z,100.00
2024-02-16T17:27:50.243Z,100.00
2024-02-16T17:30:20.917Z,100.00
2024-02-16T17:32:50.083Z,100.00
2024-02-16T17:35:17.895Z,100.00
2024-02-16T17:37:47.794Z,100.00
2024-02-16T17:40:15.085Z,100.00
2024-02-16T17:42:42.461Z,100.00
2024-02-16T17:45:10.183Z,100.00
2024-02-16T17:47:39.147Z,100.00
2024-02-16T17:50:07.555Z,100.00
2024-02-16T17:52:34.491Z,100.00
2024-02-16T17:55:05.564Z,100.00
2024-02-16T17:57:35.238Z,100.00
2024-02-16T18:00:02.108Z,100.00
2024-02-16T18:02:39.570Z,100.00
2024-02-16T18:05:11.236Z,100.00
2024-02-16T18:07:38.837Z,100.00
2024-02-16T18:10:07.612Z,100.00
2024-02-16T18:12:36.272Z,100.00
2024-02-16T18:15:05.193Z,100.00
2024-02-16T18:17:32.357Z,100.00
2024-02-16T18:19:59.271Z,100.00
2024-02-16T18:22:26.149Z,100.00
2024-02-16T18:24:52.893Z,100.00
2024-02-16T18:27:19.912Z,100.00
2024-02-16T18:29:46.765Z,100.00
2024-02-16T18:32:13.653Z,100.00
2024-02-16T18:34:40.787Z,100.00
2024-02-16T18:37:07.768Z,100.00
2024-02-16T18:39:35.376Z,100.00
2024-02-16T18:42:02.505Z,100.00
2024-02-16T18:44:29.375Z,100.00
2024-02-16T18:46:56.821Z,100.00
2024-02-16T18:49:23.899Z,100.00
2024-02-16T18:51:50.734Z,100.00
2024-02-16T18:54:17.298Z,100.00
2024-02-16T18:56:44.012Z,100.00
2024-02-16T18:59:10.855Z,100.00
2024-02-16T19:01:38.432Z,100.00
2024-02-16T19:04:05.296Z,100.00
2024-02-16T19:06:33.156Z,100.00
2024-02-16T19:09:00.186Z,100.00
2024-02-16T19:11:27.509Z,100.00
2024-02-16T19:13:54.291Z,100.00
2024-02-16T19:16:20.806Z,100.00
2024-02-16T19:18:47.684Z,100.00
2024-02-16T19:21:14.628Z,100.00
2024-02-16T19:23:41.371Z,100.00
2024-02-16T19:26:10.294Z,100.00
2024-02-16T19:28:40.365Z,100.00
2024-02-16T19:31:09.190Z,100.00
2024-02-16T19:33:37.186Z,100.00
2024-02-16T19:36:05.118Z,100.00
2024-02-16T19:38:32.824Z,100.00
2024-02-16T19:41:00.028Z,100.00
2024-02-16T19:43:29.143Z,100.00
2024-02-16T19:45:56.417Z,100.00
2024-02-16T19:48:23.953Z,100.00
2024-02-16T19:50:51.534Z,100.00
2024-02-16T19:53:19.137Z,100.00
2024-02-16T19:55:47.384Z,100.00
2024-02-16T19:58:14.392Z,100.00
2024-02-16T20:00:42.285Z,100.00
2024-02-16T20:03:09.676Z,100.00
2024-02-16T20:05:36.319Z,100.00
2024-02-16T20:08:03.090Z,100.00
2024-02-16T20:10:29.608Z,100.00
2024-02-16T20:12:56.468Z,100.00
2024-02-16T20:15:29.971Z,100.00
2024-02-16T20:18:02.729Z,100.00
2024-02-16T20:20:29.674Z,100.00
2024-02-16T20:22:56.849Z,100.00
2024-02-16T20:25:23.994Z,100.00
2024-02-16T20:27:51.231Z,100.00
2024-02-16T20:30:18.997Z,100.00
2024-02-16T20:32:46.976Z,100.00
2024-02-16T20:35:14.794Z,100.00
2024-02-16T20:37:41.752Z,100.00
2024-02-16T20:40:08.650Z,100.00
2024-02-16T20:42:35.325Z,100.00
2024-02-16T20:45:02.122Z,100.00
2024-02-16T20:47:28.881Z,100.00
2024-02-16T20:49:55.527Z,100.00
2024-02-16T20:52:23.825Z,100.00
2024-02-16T20:54:50.528Z,100.00
2024-02-16T20:57:17.197Z,100.00
2024-02-16T20:59:43.894Z,100.00
2024-02-16T21:02:10.443Z,100.00
2024-02-16T21:04:37.605Z,100.00
2024-02-16T21:07:05.170Z,100.00
2024-02-16T21:09:32.649Z,100.00
2024-02-16T21:11:59.655Z,100.00
2024-02-16T21:14:26.501Z,100.00
2024-02-16T21:16:53.820Z,100.00
2024-02-16T21:19:21.905Z,100.00
2024-02-16T21:21:49.325Z,100.00
2024-02-16T21:24:22.164Z,100.00
2024-02-16T21:26:50.024Z,100.00
2024-02-16T21:29:19.762Z,100.00
2024-02-16T21:31:46.939Z,100.00
2024-02-16T21:34:14.207Z,100.00
2024-02-16T21:36:42.125Z,100.00
2024-02-16T21:39:10.125Z,100.00
2024-02-16T21:41:37.298Z,100.00
2024-02-16T21:44:07.295Z,100.00
2024-02-16T21:46:36.804Z,100.00
2024-02-16T21:49:08.329Z,100.00
2024-02-16T21:51:37.189Z,100.00
2024-02-16T21:54:05.547Z,100.00
2024-02-16T21:56:32.632Z,100.00
2024-02-16T21:58:59.362Z,100.00
2024-02-16T22:01:26.936Z,100.00
2024-02-16T22:03:55.174Z,100.00
2024-02-16T22:06:27.687Z,100.00
2024-02-16T22:08:55.323Z,100.00
2024-02-16T22:11:23.459Z,100.00
2024-02-16T22:13:50.684Z,100.00
2024-02-16T22:16:19.068Z,100.00
2024-02-16T22:18:46.533Z,100.00
2024-02-16T22:21:13.825Z,100.00
2024-02-16T22:23:41.228Z,100.00
2024-02-16T22:26:08.989Z,100.00
2024-02-16T22:28:37.563Z,100.00
2024-02-16T22:31:04.947Z,100.00
2024-02-16T22:33:32.208Z,100.00
2024-02-16T22:36:00.616Z,100.00
2024-02-16T22:38:33.650Z,100.00
2024-02-16T22:41:00.920Z,100.00
2024-02-16T22:43:27.650Z,100.00
2024-02-16T22:45:54.338Z,100.00
2024-02-16T22:48:21.163Z,100.00
2024-02-16T22:50:48.320Z,100.00
2024-02-16T22:53:15.185Z,100.00
2024-02-16T22:55:41.959Z,100.00
2024-02-16T22:58:11.868Z,100.00
2024-02-16T23:00:42.985Z,100.00
2024-02-16T23:03:13.406Z,100.00
2024-02-16T23:05:40.561Z,100.00
2024-02-16T23:08:08.405Z,100.00
2024-02-16T23:10:36.875Z,100.00
2024-02-16T23:13:04.056Z,100.00
2024-02-16T23:15:31.379Z,100.00
2024-02-16T23:17:58.023Z,100.00
2024-02-16T23:20:24.766Z,100.00
2024-02-16T23:23:11.442Z,100.00
2024-02-16T23:25:43.713Z,100.00
2024-02-16T23:28:13.696Z,100.00
2024-02-16T23:30:41.201Z,100.00
2024-02-16T23:33:09.137Z,100.00
2024-02-16T23:35:35.895Z,100.00
2024-02-16T23:38:04.069Z,100.00
2024-02-16T23:40:31.291Z,100.00
2024-02-16T23:42:57.916Z,100.00
2024-02-16T23:45:25.018Z,100.00
2024-02-16T23:47:54.727Z,100.00
2024-02-16T23:50:21.412Z,100.00
2024-02-16T23:52:48.062Z,100.00
2024-02-16T23:55:14.753Z,100.00
2024-02-16T23:57:41.753Z,100.00
